sensor_id;sensor_type;location;lat;lon;timestamp;temperature;humidity
32706;DHT22;19094;50.972;3.538;2022-11-20T00:01:13;13.00;68.30
32706;DHT22;19094;50.972;3.538;2022-11-20T00:03:40;13.00;68.20
32706;DHT22;19094;50.972;3.538;2022-11-20T00:06:14;13.00;68.20
32706;DHT22;19094;50.972;3.538;2022-11-20T00:08:42;13.00;68.20
32706;DHT22;19094;50.972;3.538;2022-11-20T00:11:10;12.90;68.00
32706;DHT22;19094;50.972;3.538;2022-11-20T00:13:38;12.90;68.30
32706;DHT22;19094;50.972;3.538;2022-11-20T00:16:06;12.90;68.30
32706;DHT22;19094;50.972;3.538;2022-11-20T00:18:33;13.00;68.30
32706;DHT22;19094;50.972;3.538;2022-11-20T00:23:29;12.90;68.20
32706;DHT22;19094;50.972;3.538;2022-11-20T00:25:55;13.00;68.10
32706;DHT22;19094;50.972;3.538;2022-11-20T00:28:20;13.00;68.20
32706;DHT22;19094;50.972;3.538;2022-11-20T00:30:46;12.90;68.20
32706;DHT22;19094;50.972;3.538;2022-11-20T00:33:12;12.80;68.10
32706;DHT22;19094;50.972;3.538;2022-11-20T00:35:38;12.90;68.30
32706;DHT22;19094;50.972;3.538;2022-11-20T00:38:05;12.90;68.00
32706;DHT22;19094;50.972;3.538;2022-11-20T00:40:30;12.80;68.00
32706;DHT22;19094;50.972;3.538;2022-11-20T00:42:56;12.90;68.20
32706;DHT22;19094;50.972;3.538;2022-11-20T00:45:22;12.90;68.00
32706;DHT22;19094;50.972;3.538;2022-11-20T00:47:48;12.90;68.00
32706;DHT22;19094;50.972;3.538;2022-11-20T00:50:14;13.00;68.00
32706;DHT22;19094;50.972;3.538;2022-11-20T00:52:41;12.90;67.80
32706;DHT22;19094;50.972;3.538;2022-11-20T00:55:07;12.90;67.90
32706;DHT22;19094;50.972;3.538;2022-11-20T00:57:34;12.90;67.60
32706;DHT22;19094;50.972;3.538;2022-11-20T01:00:00;12.90;67.70
32706;DHT22;19094;50.972;3.538;2022-11-20T01:02:27;12.90;67.90
32706;DHT22;19094;50.972;3.538;2022-11-20T01:04:53;12.90;67.70
32706;DHT22;19094;50.972;3.538;2022-11-20T01:07:18;12.90;67.70
32706;DHT22;19094;50.972;3.538;2022-11-20T01:09:45;12.90;67.90
32706;DHT22;19094;50.972;3.538;2022-11-20T01:12:11;12.90;67.80
32706;DHT22;19094;50.972;3.538;2022-11-20T01:14:40;12.90;67.90
32706;DHT22;19094;50.972;3.538;2022-11-20T01:17:06;12.80;67.80
32706;DHT22;19094;50.972;3.538;2022-11-20T01:19:31;12.80;67.80
32706;DHT22;19094;50.972;3.538;2022-11-20T01:21:57;12.90;67.90
32706;DHT22;19094;50.972;3.538;2022-11-20T01:24:23;12.90;67.70
32706;DHT22;19094;50.972;3.538;2022-11-20T01:26:50;12.80;67.70
32706;DHT22;19094;50.972;3.538;2022-11-20T01:29:21;12.90;67.80
32706;DHT22;19094;50.972;3.538;2022-11-20T01:31:47;12.80;67.60
32706;DHT22;19094;50.972;3.538;2022-11-20T01:34:16;12.90;67.90
32706;DHT22;19094;50.972;3.538;2022-11-20T01:36:43;12.90;67.60
32706;DHT22;19094;50.972;3.538;2022-11-20T01:39:14;12.90;67.80
32706;DHT22;19094;50.972;3.538;2022-11-20T01:41:41;12.90;67.80
32706;DHT22;19094;50.972;3.538;2022-11-20T01:47:39;12.90;67.70
32706;DHT22;19094;50.972;3.538;2022-11-20T01:50:25;12.80;67.50
32706;DHT22;19094;50.972;3.538;2022-11-20T01:52:59;12.80;67.70
32706;DHT22;19094;50.972;3.538;2022-11-20T01:55:32;12.90;67.70
32706;DHT22;19094;50.972;3.538;2022-11-20T01:58:00;12.90;67.70
32706;DHT22;19094;50.972;3.538;2022-11-20T02:00:26;12.80;67.80
32706;DHT22;19094;50.972;3.538;2022-11-20T02:02:57;12.80;67.60
32706;DHT22;19094;50.972;3.538;2022-11-20T02:05:57;12.80;67.50
32706;DHT22;19094;50.972;3.538;2022-11-20T02:08:30;12.90;67.60
32706;DHT22;19094;50.972;3.538;2022-11-20T02:10:56;12.80;67.70
32706;DHT22;19094;50.972;3.538;2022-11-20T02:13:21;12.80;67.80
32706;DHT22;19094;50.972;3.538;2022-11-20T02:16:08;12.80;67.80
32706;DHT22;19094;50.972;3.538;2022-11-20T02:18:34;12.80;67.80
32706;DHT22;19094;50.972;3.538;2022-11-20T02:21:09;12.80;67.60
32706;DHT22;19094;50.972;3.538;2022-11-20T02:24:10;12.90;67.90
32706;DHT22;19094;50.972;3.538;2022-11-20T02:27:04;12.90;67.60
32706;DHT22;19094;50.972;3.538;2022-11-20T02:29:50;12.90;67.50
32706;DHT22;19094;50.972;3.538;2022-11-20T02:32:26;12.80;67.40
32706;DHT22;19094;50.972;3.538;2022-11-20T02:34:52;12.80;67.80
32706;DHT22;19094;50.972;3.538;2022-11-20T02:37:20;12.80;67.90
32706;DHT22;19094;50.972;3.538;2022-11-20T02:39:48;12.80;67.60
32706;DHT22;19094;50.972;3.538;2022-11-20T02:42:14;12.80;67.90
32706;DHT22;19094;50.972;3.538;2022-11-20T02:44:40;12.80;67.60
32706;DHT22;19094;50.972;3.538;2022-11-20T02:47:06;12.80;67.50
32706;DHT22;19094;50.972;3.538;2022-11-20T02:49:32;12.80;67.80
32706;DHT22;19094;50.972;3.538;2022-11-20T02:51:58;12.80;67.50
32706;DHT22;19094;50.972;3.538;2022-11-20T02:54:26;12.90;67.50
32706;DHT22;19094;50.972;3.538;2022-11-20T02:56:52;12.80;67.60
32706;DHT22;19094;50.972;3.538;2022-11-20T02:59:18;12.80;67.60
32706;DHT22;19094;50.972;3.538;2022-11-20T03:01:43;12.90;67.60
32706;DHT22;19094;50.972;3.538;2022-11-20T03:04:10;12.80;67.50
32706;DHT22;19094;50.972;3.538;2022-11-20T03:06:36;12.80;67.40
32706;DHT22;19094;50.972;3.538;2022-11-20T03:09:02;12.80;67.50
32706;DHT22;19094;50.972;3.538;2022-11-20T03:11:29;12.80;67.70
32706;DHT22;19094;50.972;3.538;2022-11-20T03:13:55;12.70;67.80
32706;DHT22;19094;50.972;3.538;2022-11-20T03:16:22;12.70;67.70
32706;DHT22;19094;50.972;3.538;2022-11-20T03:18:53;12.80;67.70
32706;DHT22;19094;50.972;3.538;2022-11-20T03:21:19;12.80;67.50
32706;DHT22;19094;50.972;3.538;2022-11-20T03:23:46;12.80;67.70
32706;DHT22;19094;50.972;3.538;2022-11-20T03:26:19;12.80;67.50
32706;DHT22;19094;50.972;3.538;2022-11-20T03:28:53;12.80;67.50
32706;DHT22;19094;50.972;3.538;2022-11-20T03:31:26;12.80;67.50
32706;DHT22;19094;50.972;3.538;2022-11-20T03:33:52;12.80;67.50
32706;DHT22;19094;50.972;3.538;2022-11-20T03:36:19;12.80;67.70
32706;DHT22;19094;50.972;3.538;2022-11-20T03:38:46;12.70;67.80
32706;DHT22;19094;50.972;3.538;2022-11-20T03:41:18;12.80;67.60
32706;DHT22;19094;50.972;3.538;2022-11-20T03:44:04;12.80;67.50
32706;DHT22;19094;50.972;3.538;2022-11-20T03:46:30;12.80;67.50
32706;DHT22;19094;50.972;3.538;2022-11-20T03:48:57;12.80;67.70
32706;DHT22;19094;50.972;3.538;2022-11-20T03:51:25;12.80;67.60
32706;DHT22;19094;50.972;3.538;2022-11-20T03:53:53;12.80;67.60
32706;DHT22;19094;50.972;3.538;2022-11-20T03:56:24;12.80;67.70
32706;DHT22;19094;50.972;3.538;2022-11-20T03:58:50;12.80;67.80
32706;DHT22;19094;50.972;3.538;2022-11-20T04:01:21;12.80;67.60
32706;DHT22;19094;50.972;3.538;2022-11-20T04:03:47;12.80;67.80
32706;DHT22;19094;50.972;3.538;2022-11-20T04:06:15;12.80;67.70
32706;DHT22;19094;50.972;3.538;2022-11-20T04:08:42;12.80;67.50
32706;DHT22;19094;50.972;3.538;2022-11-20T04:11:17;12.80;67.80
32706;DHT22;19094;50.972;3.538;2022-11-20T04:13:46;12.80;67.80
32706;DHT22;19094;50.972;3.538;2022-11-20T04:16:12;12.80;67.80
32706;DHT22;19094;50.972;3.538;2022-11-20T04:18:38;12.80;67.90
32706;DHT22;19094;50.972;3.538;2022-11-20T04:21:05;12.70;67.90
32706;DHT22;19094;50.972;3.538;2022-11-20T04:23:32;12.80;67.80
32706;DHT22;19094;50.972;3.538;2022-11-20T04:26:07;12.70;67.90
32706;DHT22;19094;50.972;3.538;2022-11-20T04:28:32;12.70;67.90
32706;DHT22;19094;50.972;3.538;2022-11-20T04:31:05;12.70;67.90
32706;DHT22;19094;50.972;3.538;2022-11-20T04:33:32;12.70;67.90
32706;DHT22;19094;50.972;3.538;2022-11-20T04:36:07;12.80;67.90
32706;DHT22;19094;50.972;3.538;2022-11-20T04:38:34;12.80;68.00
32706;DHT22;19094;50.972;3.538;2022-11-20T04:41:02;12.80;67.80
32706;DHT22;19094;50.972;3.538;2022-11-20T04:43:29;12.80;67.90
32706;DHT22;19094;50.972;3.538;2022-11-20T04:45:55;12.70;67.90
32706;DHT22;19094;50.972;3.538;2022-11-20T04:48:25;12.80;67.90
32706;DHT22;19094;50.972;3.538;2022-11-20T04:50:53;12.80;67.90
32706;DHT22;19094;50.972;3.538;2022-11-20T04:53:21;12.70;67.70
32706;DHT22;19094;50.972;3.538;2022-11-20T04:55:47;12.70;68.00
32706;DHT22;19094;50.972;3.538;2022-11-20T04:58:13;12.70;67.90
32706;DHT22;19094;50.972;3.538;2022-11-20T05:00:39;12.70;67.80
32706;DHT22;19094;50.972;3.538;2022-11-20T05:03:05;12.70;67.80
32706;DHT22;19094;50.972;3.538;2022-11-20T05:05:32;12.70;67.80
32706;DHT22;19094;50.972;3.538;2022-11-20T05:07:59;12.70;68.00
32706;DHT22;19094;50.972;3.538;2022-11-20T05:10:25;12.70;68.20
32706;DHT22;19094;50.972;3.538;2022-11-20T05:12:51;12.70;67.90
32706;DHT22;19094;50.972;3.538;2022-11-20T05:15:17;12.70;67.80
32706;DHT22;19094;50.972;3.538;2022-11-20T05:17:51;12.70;67.90
32706;DHT22;19094;50.972;3.538;2022-11-20T05:20:17;12.60;67.80
32706;DHT22;19094;50.972;3.538;2022-11-20T05:22:43;12.60;67.50
32706;DHT22;19094;50.972;3.538;2022-11-20T05:25:11;12.60;68.10
32706;DHT22;19094;50.972;3.538;2022-11-20T05:27:37;12.60;67.80
32706;DHT22;19094;50.972;3.538;2022-11-20T05:30:03;12.60;67.70
32706;DHT22;19094;50.972;3.538;2022-11-20T05:32:31;12.60;67.80
32706;DHT22;19094;50.972;3.538;2022-11-20T05:34:57;12.60;67.90
32706;DHT22;19094;50.972;3.538;2022-11-20T05:37:22;12.60;68.00
32706;DHT22;19094;50.972;3.538;2022-11-20T05:39:48;12.60;67.90
32706;DHT22;19094;50.972;3.538;2022-11-20T05:42:14;12.60;67.70
32706;DHT22;19094;50.972;3.538;2022-11-20T05:44:59;12.60;67.70
32706;DHT22;19094;50.972;3.538;2022-11-20T05:47:26;12.60;67.80
32706;DHT22;19094;50.972;3.538;2022-11-20T05:49:53;12.60;67.80
32706;DHT22;19094;50.972;3.538;2022-11-20T05:52:19;12.60;67.80
32706;DHT22;19094;50.972;3.538;2022-11-20T05:54:45;12.60;67.70
32706;DHT22;19094;50.972;3.538;2022-11-20T05:57:11;12.60;68.00
32706;DHT22;19094;50.972;3.538;2022-11-20T05:59:38;12.50;68.00
32706;DHT22;19094;50.972;3.538;2022-11-20T06:02:04;12.60;68.10
32706;DHT22;19094;50.972;3.538;2022-11-20T06:04:30;12.60;68.10
32706;DHT22;19094;50.972;3.538;2022-11-20T06:06:55;12.60;68.00
32706;DHT22;19094;50.972;3.538;2022-11-20T06:09:21;12.60;67.90
32706;DHT22;19094;50.972;3.538;2022-11-20T06:11:47;12.60;67.90
32706;DHT22;19094;50.972;3.538;2022-11-20T06:14:12;12.60;67.90
32706;DHT22;19094;50.972;3.538;2022-11-20T06:16:38;12.60;67.80
32706;DHT22;19094;50.972;3.538;2022-11-20T06:19:05;12.60;67.80
32706;DHT22;19094;50.972;3.538;2022-11-20T06:21:31;12.60;67.80
32706;DHT22;19094;50.972;3.538;2022-11-20T06:23:58;12.60;67.80
32706;DHT22;19094;50.972;3.538;2022-11-20T06:26:26;12.60;67.90
32706;DHT22;19094;50.972;3.538;2022-11-20T06:28:53;12.60;67.90
32706;DHT22;19094;50.972;3.538;2022-11-20T06:31:21;12.60;67.90
32706;DHT22;19094;50.972;3.538;2022-11-20T06:33:48;12.60;67.80
32706;DHT22;19094;50.972;3.538;2022-11-20T06:36:16;12.60;67.80
32706;DHT22;19094;50.972;3.538;2022-11-20T06:38:42;12.60;67.90
32706;DHT22;19094;50.972;3.538;2022-11-20T06:41:14;12.60;68.00
32706;DHT22;19094;50.972;3.538;2022-11-20T06:43:41;12.60;67.90
32706;DHT22;19094;50.972;3.538;2022-11-20T06:46:09;12.60;67.90
32706;DHT22;19094;50.972;3.538;2022-11-20T06:48:36;12.60;67.90
32706;DHT22;19094;50.972;3.538;2022-11-20T06:51:06;12.70;67.90
32706;DHT22;19094;50.972;3.538;2022-11-20T06:53:32;12.60;67.80
32706;DHT22;19094;50.972;3.538;2022-11-20T06:55:58;12.60;67.90
32706;DHT22;19094;50.972;3.538;2022-11-20T06:58:26;12.60;67.90
32706;DHT22;19094;50.972;3.538;2022-11-20T07:00:53;12.60;68.10
32706;DHT22;19094;50.972;3.538;2022-11-20T07:03:19;12.60;68.10
32706;DHT22;19094;50.972;3.538;2022-11-20T07:05:45;12.60;68.20
32706;DHT22;19094;50.972;3.538;2022-11-20T07:08:11;12.60;68.00
32706;DHT22;19094;50.972;3.538;2022-11-20T07:10:37;12.60;68.10
32706;DHT22;19094;50.972;3.538;2022-11-20T07:13:03;12.60;68.20
32706;DHT22;19094;50.972;3.538;2022-11-20T07:15:32;12.60;68.10
32706;DHT22;19094;50.972;3.538;2022-11-20T07:18:02;12.60;68.10
32706;DHT22;19094;50.972;3.538;2022-11-20T07:20:30;12.60;67.90
32706;DHT22;19094;50.972;3.538;2022-11-20T07:22:57;12.70;68.00
32706;DHT22;19094;50.972;3.538;2022-11-20T07:25:26;12.60;68.10
32706;DHT22;19094;50.972;3.538;2022-11-20T07:27:52;12.60;68.10
32706;DHT22;19094;50.972;3.538;2022-11-20T07:30:19;12.60;68.20
32706;DHT22;19094;50.972;3.538;2022-11-20T07:32:51;12.60;68.10
32706;DHT22;19094;50.972;3.538;2022-11-20T07:35:17;12.60;68.20
32706;DHT22;19094;50.972;3.538;2022-11-20T07:37:46;12.60;68.20
32706;DHT22;19094;50.972;3.538;2022-11-20T07:40:13;12.60;68.20
32706;DHT22;19094;50.972;3.538;2022-11-20T07:42:39;12.70;68.20
32706;DHT22;19094;50.972;3.538;2022-11-20T07:45:06;12.60;68.20
32706;DHT22;19094;50.972;3.538;2022-11-20T07:47:36;12.70;68.30
32706;DHT22;19094;50.972;3.538;2022-11-20T07:50:02;12.60;68.40
32706;DHT22;19094;50.972;3.538;2022-11-20T07:52:28;12.70;68.20
32706;DHT22;19094;50.972;3.538;2022-11-20T07:54:54;12.70;68.20
32706;DHT22;19094;50.972;3.538;2022-11-20T07:57:20;12.60;68.30
32706;DHT22;19094;50.972;3.538;2022-11-20T07:59:45;12.70;68.30
32706;DHT22;19094;50.972;3.538;2022-11-20T08:02:13;12.60;68.20
32706;DHT22;19094;50.972;3.538;2022-11-20T08:04:40;12.60;68.30
32706;DHT22;19094;50.972;3.538;2022-11-20T08:07:05;12.60;68.40
32706;DHT22;19094;50.972;3.538;2022-11-20T08:09:31;12.60;68.40
32706;DHT22;19094;50.972;3.538;2022-11-20T08:11:57;12.70;68.40
32706;DHT22;19094;50.972;3.538;2022-11-20T08:14:42;12.60;68.30
32706;DHT22;19094;50.972;3.538;2022-11-20T08:17:07;12.60;68.50
32706;DHT22;19094;50.972;3.538;2022-11-20T08:19:34;12.70;68.50
32706;DHT22;19094;50.972;3.538;2022-11-20T08:22:01;12.60;68.40
32706;DHT22;19094;50.972;3.538;2022-11-20T08:24:26;12.70;68.50
32706;DHT22;19094;50.972;3.538;2022-11-20T08:26:52;12.70;68.50
32706;DHT22;19094;50.972;3.538;2022-11-20T08:29:19;12.70;68.40
32706;DHT22;19094;50.972;3.538;2022-11-20T08:31:45;12.70;68.40
32706;DHT22;19094;50.972;3.538;2022-11-20T08:34:10;12.70;68.40
32706;DHT22;19094;50.972;3.538;2022-11-20T08:36:36;12.70;68.60
32706;DHT22;19094;50.972;3.538;2022-11-20T08:39:03;12.70;68.60
32706;DHT22;19094;50.972;3.538;2022-11-20T08:41:30;12.60;68.70
32706;DHT22;19094;50.972;3.538;2022-11-20T08:44:00;12.60;68.80
32706;DHT22;19094;50.972;3.538;2022-11-20T08:46:34;12.70;68.80
32706;DHT22;19094;50.972;3.538;2022-11-20T08:49:01;12.70;68.80
32706;DHT22;19094;50.972;3.538;2022-11-20T08:51:27;12.70;68.60
32706;DHT22;19094;50.972;3.538;2022-11-20T08:53:53;12.70;68.70
32706;DHT22;19094;50.972;3.538;2022-11-20T08:56:19;12.70;68.90
32706;DHT22;19094;50.972;3.538;2022-11-20T08:58:45;12.60;68.80
32706;DHT22;19094;50.972;3.538;2022-11-20T09:01:12;12.60;69.20
32706;DHT22;19094;50.972;3.538;2022-11-20T09:03:38;12.80;70.60
32706;DHT22;19094;50.972;3.538;2022-11-20T09:06:06;12.80;69.80
32706;DHT22;19094;50.972;3.538;2022-11-20T09:08:33;12.70;69.40
32706;DHT22;19094;50.972;3.538;2022-11-20T09:10:59;12.70;69.50
32706;DHT22;19094;50.972;3.538;2022-11-20T09:13:26;12.70;69.70
32706;DHT22;19094;50.972;3.538;2022-11-20T09:16:04;12.60;69.50
32706;DHT22;19094;50.972;3.538;2022-11-20T09:18:30;12.70;69.40
32706;DHT22;19094;50.972;3.538;2022-11-20T09:21:00;12.70;69.50
32706;DHT22;19094;50.972;3.538;2022-11-20T09:23:27;12.70;69.50
32706;DHT22;19094;50.972;3.538;2022-11-20T09:26:09;12.70;69.40
32706;DHT22;19094;50.972;3.538;2022-11-20T09:28:37;12.70;69.20
32706;DHT22;19094;50.972;3.538;2022-11-20T09:31:19;12.70;69.30
32706;DHT22;19094;50.972;3.538;2022-11-20T09:33:47;12.70;69.20
32706;DHT22;19094;50.972;3.538;2022-11-20T09:36:12;12.80;69.30
32706;DHT22;19094;50.972;3.538;2022-11-20T09:38:39;12.70;69.30
32706;DHT22;19094;50.972;3.538;2022-11-20T09:41:10;12.70;69.20
32706;DHT22;19094;50.972;3.538;2022-11-20T09:46:45;12.80;69.30
32706;DHT22;19094;50.972;3.538;2022-11-20T09:49:38;12.80;70.10
32706;DHT22;19094;50.972;3.538;2022-11-20T09:52:17;12.80;69.30
32706;DHT22;19094;50.972;3.538;2022-11-20T09:54:48;12.80;69.10
32706;DHT22;19094;50.972;3.538;2022-11-20T09:57:18;12.80;69.40
32706;DHT22;19094;50.972;3.538;2022-11-20T09:59:54;12.80;69.00
32706;DHT22;19094;50.972;3.538;2022-11-20T10:02:33;12.80;68.90
32706;DHT22;19094;50.972;3.538;2022-11-20T10:05:09;12.80;68.90
32706;DHT22;19094;50.972;3.538;2022-11-20T10:10:02;12.90;69.70
32706;DHT22;19094;50.972;3.538;2022-11-20T10:15:25;12.90;69.00
32706;DHT22;19094;50.972;3.538;2022-11-20T10:18:14;12.90;69.00
32706;DHT22;19094;50.972;3.538;2022-11-20T10:20:55;12.80;69.10
32706;DHT22;19094;50.972;3.538;2022-11-20T10:27:03;12.90;68.90
32706;DHT22;19094;50.972;3.538;2022-11-20T10:29:42;12.80;69.00
32706;DHT22;19094;50.972;3.538;2022-11-20T10:32:16;12.90;69.00
32706;DHT22;19094;50.972;3.538;2022-11-20T10:34:51;12.90;68.90
32706;DHT22;19094;50.972;3.538;2022-11-20T10:37:24;12.80;68.80
32706;DHT22;19094;50.972;3.538;2022-11-20T10:42:53;12.80;68.80
32706;DHT22;19094;50.972;3.538;2022-11-20T10:47:56;12.90;68.80
32706;DHT22;19094;50.972;3.538;2022-11-20T10:50:22;12.90;68.40
32706;DHT22;19094;50.972;3.538;2022-11-20T10:53:08;12.90;68.50
32706;DHT22;19094;50.972;3.538;2022-11-20T10:55:55;13.00;69.40
32706;DHT22;19094;50.972;3.538;2022-11-20T10:59:03;12.90;68.40
32706;DHT22;19094;50.972;3.538;2022-11-20T11:01:41;13.00;71.00
32706;DHT22;19094;50.972;3.538;2022-11-20T11:04:36;13.00;70.70
32706;DHT22;19094;50.972;3.538;2022-11-20T11:07:24;13.00;69.20
32706;DHT22;19094;50.972;3.538;2022-11-20T11:09:54;13.00;69.60
32706;DHT22;19094;50.972;3.538;2022-11-20T11:12:24;12.90;69.50
32706;DHT22;19094;50.972;3.538;2022-11-20T11:14:54;12.90;69.40
32706;DHT22;19094;50.972;3.538;2022-11-20T11:22:57;12.90;69.20
32706;DHT22;19094;50.972;3.538;2022-11-20T11:25:34;13.00;69.20
32706;DHT22;19094;50.972;3.538;2022-11-20T11:28:24;13.00;69.30
32706;DHT22;19094;50.972;3.538;2022-11-20T11:30:52;13.00;69.30
32706;DHT22;19094;50.972;3.538;2022-11-20T11:35:56;12.90;69.50
32706;DHT22;19094;50.972;3.538;2022-11-20T11:38:52;12.90;69.50
32706;DHT22;19094;50.972;3.538;2022-11-20T11:41:23;12.90;69.60
32706;DHT22;19094;50.972;3.538;2022-11-20T11:43:57;12.90;69.60
32706;DHT22;19094;50.972;3.538;2022-11-20T11:46:54;12.90;69.70
32706;DHT22;19094;50.972;3.538;2022-11-20T11:49:22;12.90;69.60
32706;DHT22;19094;50.972;3.538;2022-11-20T11:54:37;12.90;70.20
32706;DHT22;19094;50.972;3.538;2022-11-20T11:57:27;12.80;70.10
32706;DHT22;19094;50.972;3.538;2022-11-20T12:11:55;12.90;70.40
32706;DHT22;19094;50.972;3.538;2022-11-20T12:14:37;12.90;70.30
32706;DHT22;19094;50.972;3.538;2022-11-20T12:17:03;12.90;70.40
32706;DHT22;19094;50.972;3.538;2022-11-20T12:19:34;12.90;70.50
32706;DHT22;19094;50.972;3.538;2022-11-20T12:22:38;12.90;70.40
32706;DHT22;19094;50.972;3.538;2022-11-20T12:25:18;12.90;70.40
32706;DHT22;19094;50.972;3.538;2022-11-20T12:30:18;12.90;70.50
32706;DHT22;19094;50.972;3.538;2022-11-20T12:44:44;13.00;71.30
32706;DHT22;19094;50.972;3.538;2022-11-20T12:59:09;12.90;71.50
32706;DHT22;19094;50.972;3.538;2022-11-20T13:06:48;12.90;71.20
32706;DHT22;19094;50.972;3.538;2022-11-20T13:09:18;13.00;71.10
32706;DHT22;19094;50.972;3.538;2022-11-20T13:19:20;12.90;71.20
32706;DHT22;19094;50.972;3.538;2022-11-20T13:21:48;12.90;71.20
32706;DHT22;19094;50.972;3.538;2022-11-20T13:24:27;12.90;71.20
32706;DHT22;19094;50.972;3.538;2022-11-20T13:29:43;12.90;71.10
32706;DHT22;19094;50.972;3.538;2022-11-20T13:32:21;12.90;71.10
32706;DHT22;19094;50.972;3.538;2022-11-20T13:35:01;12.90;71.20
32706;DHT22;19094;50.972;3.538;2022-11-20T13:37:33;12.90;71.20
32706;DHT22;19094;50.972;3.538;2022-11-20T13:40:13;12.90;71.30
32706;DHT22;19094;50.972;3.538;2022-11-20T13:42:46;13.00;71.30
32706;DHT22;19094;50.972;3.538;2022-11-20T13:45:26;12.90;71.20
32706;DHT22;19094;50.972;3.538;2022-11-20T13:47:54;12.90;71.20
32706;DHT22;19094;50.972;3.538;2022-11-20T13:50:39;12.90;71.50
32706;DHT22;19094;50.972;3.538;2022-11-20T13:56:22;13.10;74.50
32706;DHT22;19094;50.972;3.538;2022-11-20T13:59:06;13.20;73.20
32706;DHT22;19094;50.972;3.538;2022-11-20T14:01:37;13.10;72.80
32706;DHT22;19094;50.972;3.538;2022-11-20T14:04:27;13.10;72.90
32706;DHT22;19094;50.972;3.538;2022-11-20T14:06:54;13.10;72.50
32706;DHT22;19094;50.972;3.538;2022-11-20T14:09:31;13.10;72.40
32706;DHT22;19094;50.972;3.538;2022-11-20T14:11:59;13.10;73.10
32706;DHT22;19094;50.972;3.538;2022-11-20T14:14:29;13.10;72.30
32706;DHT22;19094;50.972;3.538;2022-11-20T14:17:15;13.10;72.30
32706;DHT22;19094;50.972;3.538;2022-11-20T14:19:45;13.10;72.10
32706;DHT22;19094;50.972;3.538;2022-11-20T14:22:25;13.10;72.20
32706;DHT22;19094;50.972;3.538;2022-11-20T14:25:27;13.10;72.20
32706;DHT22;19094;50.972;3.538;2022-11-20T14:27:57;13.10;72.00
32706;DHT22;19094;50.972;3.538;2022-11-20T14:30:26;13.20;72.00
32706;DHT22;19094;50.972;3.538;2022-11-20T14:32:56;13.20;71.90
32706;DHT22;19094;50.972;3.538;2022-11-20T14:35:35;13.30;71.70
32706;DHT22;19094;50.972;3.538;2022-11-20T14:38:04;13.30;71.40
32706;DHT22;19094;50.972;3.538;2022-11-20T14:40:35;13.30;71.50
32706;DHT22;19094;50.972;3.538;2022-11-20T14:43:24;13.30;71.30
32706;DHT22;19094;50.972;3.538;2022-11-20T14:45:58;13.30;71.30
32706;DHT22;19094;50.972;3.538;2022-11-20T14:48:48;13.30;71.20
32706;DHT22;19094;50.972;3.538;2022-11-20T14:51:30;13.30;71.90
32706;DHT22;19094;50.972;3.538;2022-11-20T14:54:07;13.40;71.10
32706;DHT22;19094;50.972;3.538;2022-11-20T14:56:32;13.30;71.00
32706;DHT22;19094;50.972;3.538;2022-11-20T14:58:59;13.40;71.00
32706;DHT22;19094;50.972;3.538;2022-11-20T15:01:29;13.40;70.80
32706;DHT22;19094;50.972;3.538;2022-11-20T15:04:07;13.30;70.80
32706;DHT22;19094;50.972;3.538;2022-11-20T15:06:34;13.40;70.70
32706;DHT22;19094;50.972;3.538;2022-11-20T15:09:04;13.30;70.70
32706;DHT22;19094;50.972;3.538;2022-11-20T15:11:32;13.30;70.90
32706;DHT22;19094;50.972;3.538;2022-11-20T15:14:05;13.30;70.70
32706;DHT22;19094;50.972;3.538;2022-11-20T15:16:32;13.40;70.70
32706;DHT22;19094;50.972;3.538;2022-11-20T15:18:58;13.40;70.60
32706;DHT22;19094;50.972;3.538;2022-11-20T15:21:25;13.40;70.60
32706;DHT22;19094;50.972;3.538;2022-11-20T15:23:57;13.40;70.50
32706;DHT22;19094;50.972;3.538;2022-11-20T15:26:26;13.40;70.50
32706;DHT22;19094;50.972;3.538;2022-11-20T15:28:52;13.40;70.70
32706;DHT22;19094;50.972;3.538;2022-11-20T15:31:21;13.40;71.00
32706;DHT22;19094;50.972;3.538;2022-11-20T15:33:47;13.50;71.00
32706;DHT22;19094;50.972;3.538;2022-11-20T15:36:13;13.40;70.80
32706;DHT22;19094;50.972;3.538;2022-11-20T15:38:39;13.40;70.70
32706;DHT22;19094;50.972;3.538;2022-11-20T15:41:09;13.40;70.70
32706;DHT22;19094;50.972;3.538;2022-11-20T15:43:35;13.40;71.00
32706;DHT22;19094;50.972;3.538;2022-11-20T15:46:21;13.50;70.80
32706;DHT22;19094;50.972;3.538;2022-11-20T15:48:54;13.50;70.70
32706;DHT22;19094;50.972;3.538;2022-11-20T15:53:46;13.50;70.60
32706;DHT22;19094;50.972;3.538;2022-11-20T15:56:13;13.50;71.20
32706;DHT22;19094;50.972;3.538;2022-11-20T15:58:40;13.50;71.10
32706;DHT22;19094;50.972;3.538;2022-11-20T16:01:16;13.50;71.40
32706;DHT22;19094;50.972;3.538;2022-11-20T16:03:43;13.50;71.00
32706;DHT22;19094;50.972;3.538;2022-11-20T16:06:09;13.50;70.90
32706;DHT22;19094;50.972;3.538;2022-11-20T16:08:34;13.60;72.20
32706;DHT22;19094;50.972;3.538;2022-11-20T16:11:00;13.60;72.60
32706;DHT22;19094;50.972;3.538;2022-11-20T16:13:28;13.60;71.80
32706;DHT22;19094;50.972;3.538;2022-11-20T16:18:46;13.60;72.70
32706;DHT22;19094;50.972;3.538;2022-11-20T16:21:12;13.60;71.90
32706;DHT22;19094;50.972;3.538;2022-11-20T16:23:39;13.60;71.80
32706;DHT22;19094;50.972;3.538;2022-11-20T16:26:16;13.60;71.90
32706;DHT22;19094;50.972;3.538;2022-11-20T16:28:46;13.60;71.80
32706;DHT22;19094;50.972;3.538;2022-11-20T16:31:16;13.60;72.60
32706;DHT22;19094;50.972;3.538;2022-11-20T16:33:42;13.60;71.60
32706;DHT22;19094;50.972;3.538;2022-11-20T16:36:13;13.60;71.60
32706;DHT22;19094;50.972;3.538;2022-11-20T16:38:39;13.60;71.50
32706;DHT22;19094;50.972;3.538;2022-11-20T16:41:07;13.60;71.80
32706;DHT22;19094;50.972;3.538;2022-11-20T16:43:44;13.60;71.70
32706;DHT22;19094;50.972;3.538;2022-11-20T16:46:11;13.60;71.60
32706;DHT22;19094;50.972;3.538;2022-11-20T16:48:36;13.60;71.20
32706;DHT22;19094;50.972;3.538;2022-11-20T16:51:05;13.60;71.40
32706;DHT22;19094;50.972;3.538;2022-11-20T16:53:32;13.60;71.40
32706;DHT22;19094;50.972;3.538;2022-11-20T16:56:11;13.60;71.70
32706;DHT22;19094;50.972;3.538;2022-11-20T16:58:38;13.90;71.00
32706;DHT22;19094;50.972;3.538;2022-11-20T17:01:08;13.90;70.70
32706;DHT22;19094;50.972;3.538;2022-11-20T17:03:38;13.80;70.90
32706;DHT22;19094;50.972;3.538;2022-11-20T17:06:19;13.70;71.40
32706;DHT22;19094;50.972;3.538;2022-11-20T17:08:46;13.60;74.20
32706;DHT22;19094;50.972;3.538;2022-11-20T17:11:14;14.10;76.40
32706;DHT22;19094;50.972;3.538;2022-11-20T17:13:42;14.00;71.40
32706;DHT22;19094;50.972;3.538;2022-11-20T17:16:14;13.90;70.70
32706;DHT22;19094;50.972;3.538;2022-11-20T17:18:40;13.80;70.80
32706;DHT22;19094;50.972;3.538;2022-11-20T17:21:06;13.70;71.00
32706;DHT22;19094;50.972;3.538;2022-11-20T17:23:37;13.70;71.30
32706;DHT22;19094;50.972;3.538;2022-11-20T17:26:11;13.70;71.30